sensor_id;sensor_type;location;lat;lon;timestamp;pressure;altitude;pressure_sealevel;temperature;humidity
26657;BME280;14279;50.010;8.260;2023-01-31T00:01:59;101345.44;;;5.11;74.52
26657;BME280;14279;50.010;8.260;2023-01-31T00:04:25;101341.97;;;5.11;74.38
26657;BME280;14279;50.010;8.260;2023-01-31T00:10:21;101352.41;;;4.99;74.73
26657;BME280;14279;50.010;8.260;2023-01-31T00:16:11;101360.13;;;5.00;74.70
26657;BME280;14279;50.010;8.260;2023-01-31T00:18:40;101356.50;;;5.28;73.26
26657;BME280;14279;50.010;8.260;2023-01-31T00:21:21;101352.19;;;5.28;73.42
26657;BME280;14279;50.010;8.260;2023-01-31T00:23:48;101351.34;;;5.28;73.75
26657;BME280;14279;50.010;8.260;2023-01-31T00:28:42;101343.69;;;5.15;73.91
26657;BME280;14279;50.010;8.260;2023-01-31T00:31:09;101344.44;;;5.28;73.47
26657;BME280;14279;50.010;8.260;2023-01-31T00:33:41;101357.31;;;5.33;73.52
26657;BME280;14279;50.010;8.260;2023-01-31T00:36:10;101366.75;;;5.35;73.18
26657;BME280;14279;50.010;8.260;2023-01-31T00:38:38;101354.69;;;5.36;73.53
26657;BME280;14279;50.010;8.260;2023-01-31T00:41:07;101361.69;;;5.24;73.29
26657;BME280;14279;50.010;8.260;2023-01-31T00:43:33;101359.94;;;5.28;73.24
26657;BME280;14279;50.010;8.260;2023-01-31T00:45:58;101361.66;;;5.29;72.47
26657;BME280;14279;50.010;8.260;2023-01-31T00:48:27;101359.16;;;5.18;73.00
26657;BME280;14279;50.010;8.260;2023-01-31T00:50:55;101360.00;;;5.19;72.96
26657;BME280;14279;50.010;8.260;2023-01-31T00:53:20;101346.25;;;5.18;72.76
26657;BME280;14279;50.010;8.260;2023-01-31T00:55:50;101354.91;;;5.09;72.55
26657;BME280;14279;50.010;8.260;2023-01-31T00:58:16;101348.06;;;5.05;72.48
26657;BME280;14279;50.010;8.260;2023-01-31T01:00:42;101357.66;;;4.88;73.22
26657;BME280;14279;50.010;8.260;2023-01-31T01:03:07;101359.31;;;4.96;73.05
26657;BME280;14279;50.010;8.260;2023-01-31T01:05:32;101351.63;;;4.87;73.47
26657;BME280;14279;50.010;8.260;2023-01-31T01:07:58;101355.00;;;4.99;73.03
26657;BME280;14279;50.010;8.260;2023-01-31T01:10:23;101368.88;;;4.77;73.23
26657;BME280;14279;50.010;8.260;2023-01-31T01:12:48;101365.59;;;4.47;74.08
26657;BME280;14279;50.010;8.260;2023-01-31T01:15:14;101368.16;;;4.54;74.19
26657;BME280;14279;50.010;8.260;2023-01-31T01:17:39;101371.72;;;4.26;74.41
26657;BME280;14279;50.010;8.260;2023-01-31T01:20:05;101377.72;;;4.25;74.87
26657;BME280;14279;50.010;8.260;2023-01-31T01:22:33;101379.44;;;4.23;74.61
26657;BME280;14279;50.010;8.260;2023-01-31T01:24:59;101375.09;;;4.38;74.16
26657;BME280;14279;50.010;8.260;2023-01-31T01:27:24;101375.03;;;4.53;73.48
26657;BME280;14279;50.010;8.260;2023-01-31T01:29:51;101381.88;;;4.56;73.10
26657;BME280;14279;50.010;8.260;2023-01-31T01:32:17;101385.22;;;4.76;72.45
26657;BME280;14279;50.010;8.260;2023-01-31T01:34:42;101387.75;;;4.89;72.17
26657;BME280;14279;50.010;8.260;2023-01-31T01:37:07;101382.63;;;4.76;72.13
26657;BME280;14279;50.010;8.260;2023-01-31T01:39:47;101388.69;;;4.71;72.63
26657;BME280;14279;50.010;8.260;2023-01-31T01:42:14;101392.94;;;4.82;71.66
26657;BME280;14279;50.010;8.260;2023-01-31T01:44:50;101386.03;;;4.86;71.17
26657;BME280;14279;50.010;8.260;2023-01-31T01:47:25;101394.53;;;4.99;71.15
26657;BME280;14279;50.010;8.260;2023-01-31T01:50:26;101402.38;;;4.85;71.12
26657;BME280;14279;50.010;8.260;2023-01-31T01:52:57;101396.31;;;4.95;71.12
26657;BME280;14279;50.010;8.260;2023-01-31T01:55:31;101390.38;;;4.79;71.67
26657;BME280;14279;50.010;8.260;2023-01-31T01:58:31;101389.38;;;5.01;70.78
26657;BME280;14279;50.010;8.260;2023-01-31T02:00:58;101391.13;;;4.94;71.22
26657;BME280;14279;50.010;8.260;2023-01-31T02:03:24;101396.34;;;4.91;71.09
26657;BME280;14279;50.010;8.260;2023-01-31T02:06:00;101395.47;;;4.87;71.07
26657;BME280;14279;50.010;8.260;2023-01-31T02:08:29;101392.03;;;4.93;71.09
26657;BME280;14279;50.010;8.260;2023-01-31T02:14:45;101384.16;;;5.07;70.78
26657;BME280;14279;50.010;8.260;2023-01-31T02:17:49;101385.94;;;4.97;70.79
26657;BME280;14279;50.010;8.260;2023-01-31T02:26:01;101392.06;;;4.84;70.95
26657;BME280;14279;50.010;8.260;2023-01-31T02:34:06;101374.09;;;4.70;71.65
26657;BME280;14279;50.010;8.260;2023-01-31T02:36:55;101368.13;;;4.57;72.12
26657;BME280;14279;50.010;8.260;2023-01-31T02:42:12;101359.56;;;4.48;72.12
26657;BME280;14279;50.010;8.260;2023-01-31T02:44:49;101351.06;;;4.34;72.48
26657;BME280;14279;50.010;8.260;2023-01-31T02:47:43;101356.16;;;4.45;72.25
26657;BME280;14279;50.010;8.260;2023-01-31T02:50:23;101355.34;;;4.35;72.75
26657;BME280;14279;50.010;8.260;2023-01-31T02:52:58;101358.78;;;4.34;72.53
26657;BME280;14279;50.010;8.260;2023-01-31T02:55:29;101360.47;;;4.43;71.95
26657;BME280;14279;50.010;8.260;2023-01-31T02:58:16;101362.19;;;4.45;71.72
26657;BME280;14279;50.010;8.260;2023-01-31T03:00:45;101365.66;;;4.29;72.67
26657;BME280;14279;50.010;8.260;2023-01-31T03:03:21;101375.09;;;4.36;72.00
26657;BME280;14279;50.010;8.260;2023-01-31T03:06:09;101382.84;;;4.30;72.28
26657;BME280;14279;50.010;8.260;2023-01-31T03:08:37;101387.97;;;4.38;72.08
26657;BME280;14279;50.010;8.260;2023-01-31T03:11:05;101388.00;;;4.30;72.56
26657;BME280;14279;50.010;8.260;2023-01-31T03:19:28;101392.31;;;4.26;72.24
26657;BME280;14279;50.010;8.260;2023-01-31T03:22:10;101407.78;;;4.31;71.98
26657;BME280;14279;50.010;8.260;2023-01-31T03:24:42;101409.50;;;4.29;72.06
26657;BME280;14279;50.010;8.260;2023-01-31T03:27:08;101400.03;;;4.34;71.90
26657;BME280;14279;50.010;8.260;2023-01-31T03:29:34;101406.06;;;4.27;71.70
26657;BME280;14279;50.010;8.260;2023-01-31T03:32:07;101419.78;;;4.41;71.44
26657;BME280;14279;50.010;8.260;2023-01-31T03:34:36;101412.94;;;4.29;71.71
26657;BME280;14279;50.010;8.260;2023-01-31T03:37:14;101407.78;;;4.23;72.39
26657;BME280;14279;50.010;8.260;2023-01-31T03:39:56;101418.09;;;4.28;72.23
26657;BME280;14279;50.010;8.260;2023-01-31T03:45:29;101428.41;;;4.25;71.99
26657;BME280;14279;50.010;8.260;2023-01-31T03:47:58;101423.25;;;4.26;72.27
26657;BME280;14279;50.010;8.260;2023-01-31T03:50:30;101413.81;;;4.28;71.59
26657;BME280;14279;50.010;8.260;2023-01-31T03:55:53;101419.00;;;4.17;72.09
26657;BME280;14279;50.010;8.260;2023-01-31T03:58:25;101419.84;;;4.19;72.27
26657;BME280;14279;50.010;8.260;2023-01-31T04:00:53;101424.13;;;4.10;72.56
26657;BME280;14279;50.010;8.260;2023-01-31T04:05:50;101422.41;;;4.15;72.42
26657;BME280;14279;50.010;8.260;2023-01-31T04:08:15;101429.31;;;4.06;72.20
26657;BME280;14279;50.010;8.260;2023-01-31T04:10:41;101420.72;;;4.00;72.63
26657;BME280;14279;50.010;8.260;2023-01-31T04:13:07;101426.72;;;4.02;72.72
26657;BME280;14279;50.010;8.260;2023-01-31T04:15:32;101420.72;;;4.06;72.38
26657;BME280;14279;50.010;8.260;2023-01-31T04:17:57;101420.75;;;3.94;72.98
26657;BME280;14279;50.010;8.260;2023-01-31T04:20:23;101409.56;;;3.96;73.10
26657;BME280;14279;50.010;8.260;2023-01-31T04:22:48;101414.75;;;3.82;73.18
26657;BME280;14279;50.010;8.260;2023-01-31T04:25:13;101408.75;;;3.89;73.15
26657;BME280;14279;50.010;8.260;2023-01-31T04:27:38;101400.16;;;3.84;73.40
26657;BME280;14279;50.010;8.260;2023-01-31T04:30:05;101407.88;;;3.86;73.32
26657;BME280;14279;50.010;8.260;2023-01-31T04:32:30;101408.75;;;3.85;73.12
26657;BME280;14279;50.010;8.260;2023-01-31T04:34:56;101403.59;;;3.77;73.43
26657;BME280;14279;50.010;8.260;2023-01-31T04:37:21;101396.69;;;3.96;72.63
26657;BME280;14279;50.010;8.260;2023-01-31T04:39:46;101391.56;;;3.91;72.49
26657;BME280;14279;50.010;8.260;2023-01-31T04:42:11;101376.97;;;3.83;72.90
26657;BME280;14279;50.010;8.260;2023-01-31T04:44:37;101382.97;;;3.89;72.88
26657;BME280;14279;50.010;8.260;2023-01-31T04:47:02;101380.38;;;3.94;72.63
26657;BME280;14279;50.010;8.260;2023-01-31T04:49:27;101377.81;;;3.94;72.29
26657;BME280;14279;50.010;8.260;2023-01-31T04:51:52;101389.84;;;3.90;72.36
26657;BME280;14279;50.010;8.260;2023-01-31T04:54:18;101381.25;;;3.82;73.14
26657;BME280;14279;50.010;8.260;2023-01-31T04:56:43;101389.00;;;3.81;72.88
26657;BME280;14279;50.010;8.260;2023-01-31T04:59:08;101373.53;;;3.85;72.52
26657;BME280;14279;50.010;8.260;2023-01-31T05:01:34;101388.97;;;3.90;72.54
26657;BME280;14279;50.010;8.260;2023-01-31T05:03:59;101388.97;;;3.96;72.31
26657;BME280;14279;50.010;8.260;2023-01-31T05:06:24;101386.38;;;3.99;72.31
26657;BME280;14279;50.010;8.260;2023-01-31T05:08:49;101380.38;;;4.06;71.75
26657;BME280;14279;50.010;8.260;2023-01-31T05:11:17;101379.50;;;4.03;71.88
26657;BME280;14279;50.010;8.260;2023-01-31T05:13:42;101383.84;;;3.91;71.78
26657;BME280;14279;50.010;8.260;2023-01-31T05:16:10;101378.69;;;3.88;72.33
26657;BME280;14279;50.010;8.260;2023-01-31T05:18:36;101382.09;;;4.01;71.84
26657;BME280;14279;50.010;8.260;2023-01-31T05:21:02;101372.69;;;3.79;72.46
26657;BME280;14279;50.010;8.260;2023-01-31T05:23:29;101376.94;;;3.92;72.03
26657;BME280;14279;50.010;8.260;2023-01-31T05:25:54;101375.25;;;3.93;72.32
26657;BME280;14279;50.010;8.260;2023-01-31T05:28:20;101370.09;;;3.80;72.57
26657;BME280;14279;50.010;8.260;2023-01-31T05:30:45;101374.38;;;3.90;71.90
26657;BME280;14279;50.010;8.260;2023-01-31T05:33:11;101379.53;;;3.90;72.15
26657;BME280;14279;50.010;8.260;2023-01-31T05:35:36;101388.13;;;3.80;72.44
26657;BME280;14279;50.010;8.260;2023-01-31T05:38:02;101384.72;;;3.73;72.51
26657;BME280;14279;50.010;8.260;2023-01-31T05:40:28;101387.31;;;3.69;73.14
26657;BME280;14279;50.010;8.260;2023-01-31T05:42:57;101387.31;;;3.55;73.44
26657;BME280;14279;50.010;8.260;2023-01-31T05:45:25;101374.44;;;3.44;73.43
26657;BME280;14279;50.010;8.260;2023-01-31T05:47:50;101386.47;;;3.48;73.88
26657;BME280;14279;50.010;8.260;2023-01-31T05:50:16;101389.00;;;3.60;73.25
26657;BME280;14279;50.010;8.260;2023-01-31T05:52:42;101377.84;;;3.61;73.40
26657;BME280;14279;50.010;8.260;2023-01-31T05:55:07;101374.44;;;3.72;72.74
26657;BME280;14279;50.010;8.260;2023-01-31T05:57:33;101383.00;;;3.75;73.05
26657;BME280;14279;50.010;8.260;2023-01-31T06:00:04;101382.16;;;3.56;73.59
26657;BME280;14279;50.010;8.260;2023-01-31T06:02:29;101369.28;;;3.53;73.23
26657;BME280;14279;50.010;8.260;2023-01-31T06:04:55;101361.56;;;3.72;73.28
26657;BME280;14279;50.010;8.260;2023-01-31T06:07:20;101363.25;;;3.84;72.59
26657;BME280;14279;50.010;8.260;2023-01-31T06:09:47;101365.81;;;3.88;72.15
26657;BME280;14279;50.010;8.260;2023-01-31T06:12:12;101370.06;;;3.88;72.14
26657;BME280;14279;50.010;8.260;2023-01-31T06:14:39;101370.06;;;4.03;71.55
26657;BME280;14279;50.010;8.260;2023-01-31T06:17:04;101373.50;;;4.05;71.21
26657;BME280;14279;50.010;8.260;2023-01-31T06:19:30;101369.22;;;3.95;71.65
26657;BME280;14279;50.010;8.260;2023-01-31T06:21:55;101370.03;;;4.05;71.54
26657;BME280;14279;50.010;8.260;2023-01-31T06:24:20;101369.19;;;4.00;71.41
26657;BME280;14279;50.010;8.260;2023-01-31T06:26:46;101375.22;;;4.03;71.66
26657;BME280;14279;50.010;8.260;2023-01-31T06:29:11;101377.81;;;3.94;71.49
26657;BME280;14279;50.010;8.260;2023-01-31T06:31:36;101376.09;;;3.82;71.63
26657;BME280;14279;50.010;8.260;2023-01-31T06:34:02;101383.00;;;3.75;72.16
26657;BME280;14279;50.010;8.260;2023-01-31T06:36:27;101381.28;;;3.78;71.92
26657;BME280;14279;50.010;8.260;2023-01-31T06:38:55;101381.28;;;3.67;72.91
26657;BME280;14279;50.010;8.260;2023-01-31T06:41:20;101385.59;;;3.44;73.52
26657;BME280;14279;50.010;8.260;2023-01-31T06:43:46;101378.72;;;3.46;73.18
26657;BME280;14279;50.010;8.260;2023-01-31T06:46:11;101382.16;;;3.41;73.49
26657;BME280;14279;50.010;8.260;2023-01-31T06:48:36;101387.28;;;3.50;73.04
26657;BME280;14279;50.010;8.260;2023-01-31T06:51:01;101395.88;;;3.38;73.37
26657;BME280;14279;50.010;8.260;2023-01-31T06:53:27;101394.19;;;3.34;73.88
26657;BME280;14279;50.010;8.260;2023-01-31T06:55:52;101385.59;;;3.34;73.99
26657;BME280;14279;50.010;8.260;2023-01-31T06:58:20;101389.88;;;3.45;73.65
26657;BME280;14279;50.010;8.260;2023-01-31T07:00:45;101389.03;;;3.45;73.35
26657;BME280;14279;50.010;8.260;2023-01-31T07:03:11;101386.44;;;3.51;73.20
26657;BME280;14279;50.010;8.260;2023-01-31T07:05:37;101393.31;;;3.51;73.50
26657;BME280;14279;50.010;8.260;2023-01-31T07:08:03;101392.47;;;3.55;73.48
26657;BME280;14279;50.010;8.260;2023-01-31T07:10:28;101395.91;;;3.54;73.10
26657;BME280;14279;50.010;8.260;2023-01-31T07:12:54;101392.44;;;3.67;72.73
26657;BME280;14279;50.010;8.260;2023-01-31T07:15:19;101399.31;;;3.67;73.19
26657;BME280;14279;50.010;8.260;2023-01-31T07:17:44;101406.19;;;3.55;73.15
26657;BME280;14279;50.010;8.260;2023-01-31T07:20:10;101400.16;;;3.50;73.71
26657;BME280;14279;50.010;8.260;2023-01-31T07:22:35;101405.31;;;3.64;72.91
26657;BME280;14279;50.010;8.260;2023-01-31T07:25:01;101407.03;;;3.79;72.70
26657;BME280;14279;50.010;8.260;2023-01-31T07:27:26;101405.31;;;3.67;72.75
26657;BME280;14279;50.010;8.260;2023-01-31T07:29:52;101406.19;;;3.75;72.93
26657;BME280;14279;50.010;8.260;2023-01-31T07:32:17;101412.16;;;3.87;72.02
26657;BME280;14279;50.010;8.260;2023-01-31T07:34:43;101417.31;;;3.91;72.21
26657;BME280;14279;50.010;8.260;2023-01-31T07:37:08;101413.00;;;4.04;72.18
26657;BME280;14279;50.010;8.260;2023-01-31T07:39:33;101413.84;;;4.11;71.11
26657;BME280;14279;50.010;8.260;2023-01-31T07:41:58;101408.72;;;4.03;71.54
26657;BME280;14279;50.010;8.260;2023-01-31T07:44:24;101416.44;;;4.05;72.13
26657;BME280;14279;50.010;8.260;2023-01-31T07:46:49;101418.16;;;4.06;71.48
26657;BME280;14279;50.010;8.260;2023-01-31T07:49:16;101412.16;;;3.95;72.09
26657;BME280;14279;50.010;8.260;2023-01-31T07:51:41;101413.84;;;4.05;71.81
26657;BME280;14279;50.010;8.260;2023-01-31T07:54:09;101404.41;;;3.98;71.76
26657;BME280;14279;50.010;8.260;2023-01-31T07:56:34;101403.53;;;4.14;71.88
26657;BME280;14279;50.010;8.260;2023-01-31T07:59:00;101394.88;;;4.31;70.78
26657;BME280;14279;50.010;8.260;2023-01-31T08:01:28;101403.56;;;4.06;71.85
26657;BME280;14279;50.010;8.260;2023-01-31T08:04:13;101394.97;;;3.95;72.43
26657;BME280;14279;50.010;8.260;2023-01-31T08:06:40;101400.16;;;3.81;72.70
26657;BME280;14279;50.010;8.260;2023-01-31T08:09:06;101389.00;;;3.81;72.91
26657;BME280;14279;50.010;8.260;2023-01-31T08:11:31;101382.97;;;3.86;72.70
26657;BME280;14279;50.010;8.260;2023-01-31T08:13:57;101393.28;;;3.69;73.63
26657;BME280;14279;50.010;8.260;2023-01-31T08:16:22;101388.97;;;3.87;73.34
26657;BME280;14279;50.010;8.260;2023-01-31T08:18:47;101396.75;;;3.70;73.89
26657;BME280;14279;50.010;8.260;2023-01-31T08:21:13;101407.03;;;3.81;73.30
26657;BME280;14279;50.010;8.260;2023-01-31T08:23:39;101422.50;;;3.67;73.92
26657;BME280;14279;50.010;8.260;2023-01-31T08:26:10;101419.94;;;3.70;73.71
26657;BME280;14279;50.010;8.260;2023-01-31T08:28:37;101421.63;;;3.77;74.17
26657;BME280;14279;50.010;8.260;2023-01-31T08:31:03;101435.34;;;3.95;73.89
26657;BME280;14279;50.010;8.260;2023-01-31T08:33:28;101437.94;;;3.91;73.78
26657;BME280;14279;50.010;8.260;2023-01-31T08:35:53;101440.53;;;3.84;74.18
26657;BME280;14279;50.010;8.260;2023-01-31T08:38:19;101438.78;;;3.90;74.00
26657;BME280;14279;50.010;8.260;2023-01-31T08:40:44;101429.34;;;3.83;74.58
26657;BME280;14279;50.010;8.260;2023-01-31T08:43:10;101441.38;;;3.83;74.21
26657;BME280;14279;50.010;8.260;2023-01-31T08:45:36;101440.50;;;3.96;73.93
26657;BME280;14279;50.010;8.260;2023-01-31T08:48:02;101433.63;;;3.97;74.01
26657;BME280;14279;50.010;8.260;2023-01-31T08:50:29;101425.00;;;4.01;73.69
26657;BME280;14279;50.010;8.260;2023-01-31T08:52:56;101423.28;;;4.09;73.63
26657;BME280;14279;50.010;8.260;2023-01-31T08:55:22;101417.31;;;3.95;74.18
26657;BME280;14279;50.010;8.260;2023-01-31T08:57:49;101404.41;;;3.98;74.86
26657;BME280;14279;50.010;8.260;2023-01-31T09:00:16;101401.88;;;3.95;74.39
26657;BME280;14279;50.010;8.260;2023-01-31T09:02:42;101396.69;;;4.09;74.19
26657;BME280;14279;50.010;8.260;2023-01-31T09:05:07;101395.00;;;3.84;74.91
26657;BME280;14279;50.010;8.260;2023-01-31T09:07:34;101404.38;;;4.18;74.17
26657;BME280;14279;50.010;8.260;2023-01-31T09:09:59;101406.97;;;4.01;74.77
26657;BME280;14279;50.010;8.260;2023-01-31T09:12:24;101405.28;;;3.95;74.98
26657;BME280;14279;50.010;8.260;2023-01-31T09:14:50;101400.97;;;4.03;75.50
26657;BME280;14279;50.010;8.260;2023-01-31T09:17:16;101410.38;;;4.17;74.67
26657;BME280;14279;50.010;8.260;2023-01-31T09:19:41;101399.19;;;4.26;74.13
26657;BME280;14279;50.010;8.260;2023-01-31T09:22:07;101411.19;;;4.34;73.91
26657;BME280;14279;50.010;8.260;2023-01-31T09:24:32;101412.94;;;4.21;74.56
26657;BME280;14279;50.010;8.260;2023-01-31T09:26:57;101420.63;;;4.42;74.02
26657;BME280;14279;50.010;8.260;2023-01-31T09:29:22;101420.59;;;4.49;73.87
26657;BME280;14279;50.010;8.260;2023-01-31T09:31:51;101425.75;;;4.48;74.13
26657;BME280;14279;50.010;8.260;2023-01-31T09:34:17;101438.63;;;4.59;73.14
26657;BME280;14279;50.010;8.260;2023-01-31T09:36:43;101431.72;;;4.61;73.13
26657;BME280;14279;50.010;8.260;2023-01-31T09:39:10;101440.38;;;4.46;74.17
26657;BME280;14279;50.010;8.260;2023-01-31T09:41:38;101437.00;;;4.19;75.08
26657;BME280;14279;50.010;8.260;2023-01-31T09:44:24;101424.09;;;4.36;74.54
26657;BME280;14279;50.010;8.260;2023-01-31T09:46:55;101423.22;;;4.37;75.31
26657;BME280;14279;50.010;8.260;2023-01-31T09:49:25;101420.63;;;4.40;75.26
26657;BME280;14279;50.010;8.260;2023-01-31T09:51:56;101424.94;;;4.44;74.96
26657;BME280;14279;50.010;8.260;2023-01-31T09:54:28;101412.03;;;4.41;74.87
26657;BME280;14279;50.010;8.260;2023-01-31T09:59:47;101400.88;;;4.33;75.98
26657;BME280;14279;50.010;8.260;2023-01-31T10:02:30;101402.56;;;4.42;75.33
26657;BME280;14279;50.010;8.260;2023-01-31T10:05:20;101412.00;;;4.55;75.30
26657;BME280;14279;50.010;8.260;2023-01-31T10:08:37;101417.19;;;4.33;75.86
26657;BME280;14279;50.010;8.260;2023-01-31T10:11:09;101422.28;;;4.54;75.04
26657;BME280;14279;50.010;8.260;2023-01-31T10:13:52;101414.47;;;4.74;74.73
26657;BME280;14279;50.010;8.260;2023-01-31T10:16:45;101403.28;;;4.78;74.34
26657;BME280;14279;50.010;8.260;2023-01-31T10:19:17;101393.78;;;4.83;73.63
26657;BME280;14279;50.010;8.260;2023-01-31T10:21:48;101380.09;;;4.72;74.48
26657;BME280;14279;50.010;8.260;2023-01-31T10:24:22;101385.34;;;4.53;74.78
26657;BME280;14279;50.010;8.260;2023-01-31T10:26:51;101378.41;;;4.61;74.56
26657;BME280;14279;50.010;8.260;2023-01-31T10:29:25;101391.19;;;4.83;74.06
26657;BME280;14279;50.010;8.260;2023-01-31T10:34:42;101398.13;;;4.76;73.85
26657;BME280;14279;50.010;8.260;2023-01-31T10:37:18;101405.72;;;5.03;73.33
26657;BME280;14279;50.010;8.260;2023-01-31T10:39:57;101389.47;;;4.82;73.44
26657;BME280;14279;50.010;8.260;2023-01-31T10:48:19;101357.63;;;4.86;73.69
26657;BME280;14279;50.010;8.260;2023-01-31T10:51:22;101346.47;;;4.86;73.28
26657;BME280;14279;50.010;8.260;2023-01-31T10:56:35;101337.84;;;4.93;72.68
26657;BME280;14279;50.010;8.260;2023-01-31T10:59:04;101338.59;;;5.04;73.03
26657;BME280;14279;50.010;8.260;2023-01-31T11:01:33;101330.84;;;5.04;72.43
26657;BME280;14279;50.010;8.260;2023-01-31T11:04:00;101342.16;;;4.88;72.61
26657;BME280;14279;50.010;8.260;2023-01-31T11:06:26;101332.59;;;5.02;72.21
26657;BME280;14279;50.010;8.260;2023-01-31T11:08:57;101316.94;;;5.21;71.61
26657;BME280;14279;50.010;8.260;2023-01-31T11:11:25;101312.81;;;5.01;72.17
26657;BME280;14279;50.010;8.260;2023-01-31T11:14:03;101298.28;;;4.86;73.24
26657;BME280;14279;50.010;8.260;2023-01-31T11:16:33;101290.38;;;5.08;72.28
26657;BME280;14279;50.010;8.260;2023-01-31T11:19:02;101276.63;;;5.10;72.18
26657;BME280;14279;50.010;8.260;2023-01-31T11:21:30;101280.22;;;4.89;72.25
26657;BME280;14279;50.010;8.260;2023-01-31T11:24:01;101251.75;;;5.00;72.05
26657;BME280;14279;50.010;8.260;2023-01-31T11:26:32;101247.47;;;5.01;72.16
26657;BME280;14279;50.010;8.260;2023-01-31T11:28:58;101262.78;;;5.16;71.83
26657;BME280;14279;50.010;8.260;2023-01-31T11:31:32;101254.28;;;5.06;71.30
26657;BME280;14279;50.010;8.260;2023-01-31T11:34:00;101234.31;;;5.25;71.34
26657;BME280;14279;50.010;8.260;2023-01-31T11:36:40;101258.56;;;5.07;71.83
26657;BME280;14279;50.010;8.260;2023-01-31T11:39:29;101252.31;;;5.32;71.49
26657;BME280;14279;50.010;8.260;2023-01-31T11:41:56;101247.16;;;5.33;71.29
26657;BME280;14279;50.010;8.260;2023-01-31T11:44:22;101241.94;;;5.38;70.49
26657;BME280;14279;50.010;8.260;2023-01-31T11:46:50;101231.75;;;5.25;71.55
26657;BME280;14279;50.010;8.260;2023-01-31T11:49:21;101211.75;;;5.43;71.05
26657;BME280;14279;50.010;8.260;2023-01-31T11:51:48;101210.00;;;5.45;70.82
26657;BME280;14279;50.010;8.260;2023-01-31T11:54:20;101219.56;;;5.37;71.35
26657;BME280;14279;50.010;8.260;2023-01-31T11:56:46;101209.19;;;5.40;71.46
26657;BME280;14279;50.010;8.260;2023-01-31T11:59:15;101199.50;;;5.62;70.45
26657;BME280;14279;50.010;8.260;2023-01-31T12:01:48;101191.03;;;5.48;71.24
26657;BME280;14279;50.010;8.260;2023-01-31T12:04:33;101183.28;;;5.49;71.64
26657;BME280;14279;50.010;8.260;2023-01-31T12:07:08;101188.31;;;5.60;71.43
26657;BME280;14279;50.010;8.260;2023-01-31T12:09:44;101179.56;;;5.72;70.77
26657;BME280;14279;50.010;8.260;2023-01-31T12:12:36;101165.88;;;5.65;70.92
26657;BME280;14279;50.010;8.260;2023-01-31T12:15:13;101187.28;;;5.74;70.92
26657;BME280;14279;50.010;8.260;2023-01-31T12:17:44;101207.09;;;5.73;70.88
26657;BME280;14279;50.010;8.260;2023-01-31T12:20:31;101202.72;;;5.80;71.11
26657;BME280;14279;50.010;8.260;2023-01-31T12:23:11;101191.31;;;5.95;70.65
26657;BME280;14279;50.010;8.260;2023-01-31T12:31:04;101153.69;;;5.74;72.14
26657;BME280;14279;50.010;8.260;2023-01-31T12:33:49;101150.38;;;5.64;71.81
26657;BME280;14279;50.010;8.260;2023-01-31T12:36:28;101138.25;;;5.67;72.09
26657;BME280;14279;50.010;8.260;2023-01-31T12:39:27;101149.69;;;5.51;72.59
26657;BME280;14279;50.010;8.260;2023-01-31T12:42:15;101150.31;;;5.70;72.55
26657;BME280;14279;50.010;8.260;2023-01-31T12:50:33;101128.47;;;5.93;72.27
26657;BME280;14279;50.010;8.260;2023-01-31T12:53:26;101133.53;;;6.00;71.64
26657;BME280;14279;50.010;8.260;2023-01-31T12:56:05;101119.84;;;5.94;71.56
26657;BME280;14279;50.010;8.260;2023-01-31T12:58:54;101105.00;;;6.08;71.17
26657;BME280;14279;50.010;8.260;2023-01-31T13:01:48;101117.28;;;5.91;71.84
26657;BME280;14279;50.010;8.260;2023-01-31T13:07:29;101099.13;;;5.95;72.50
26657;BME280;14279;50.010;8.260;2023-01-31T13:09:57;101080.25;;;5.90;72.63
26657;BME280;14279;50.010;8.260;2023-01-31T13:12:29;101085.94;;;6.14;72.14
26657;BME280;14279;50.010;8.260;2023-01-31T13:15:04;101089.44;;;6.13;72.46
26657;BME280;14279;50.010;8.260;2023-01-31T13:17:32;101090.97;;;6.23;71.99
26657;BME280;14279;50.010;8.260;2023-01-31T13:22:56;101073.47;;;6.39;71.47
26657;BME280;14279;50.010;8.260;2023-01-31T13:25:55;101075.19;;;6.39;71.70
26657;BME280;14279;50.010;8.260;2023-01-31T13:32:20;101072.41;;;6.51;71.70
26657;BME280;14279;50.010;8.260;2023-01-31T13:34:54;101074.09;;;6.52;71.34
26657;BME280;14279;50.010;8.260;2023-01-31T13:37:39;101075.81;;;6.53;71.71
26657;BME280;14279;50.010;8.260;2023-01-31T13:40:30;101074.16;;;6.49;72.37
26657;BME280;14279;50.010;8.260;2023-01-31T13:43:11;101081.00;;;6.53;72.22
26657;BME280;14279;50.010;8.260;2023-01-31T13:45:51;101066.50;;;6.43;72.98
26657;BME280;14279;50.010;8.260;2023-01-31T13:51:07;101079.56;;;6.37;73.24
26657;BME280;14279;50.010;8.260;2023-01-31T13:53:45;101076.38;;;6.21;73.83
26657;BME280;14279;50.010;8.260;2023-01-31T13:56:24;101074.50;;;6.30;73.98
26657;BME280;14279;50.010;8.260;2023-01-31T13:58:53;101075.09;;;6.46;73.11
26657;BME280;14279;50.010;8.260;2023-01-31T14:01:25;101061.56;;;6.29;73.82
26657;BME280;14279;50.010;8.260;2023-01-31T14:13:47;101078.13;;;6.17;77.30
26657;BME280;14279;50.010;8.260;2023-01-31T14:22:33;101069.09;;;5.86;80.71
26657;BME280;14279;50.010;8.260;2023-01-31T14:46:05;101081.53;;;5.61;86.89
26657;BME280;14279;50.010;8.260;2023-01-31T14:49:18;101082.19;;;5.76;87.06
26657;BME280;14279;50.010;8.260;2023-01-31T14:52:24;101074.97;;;5.37;86.91
26657;BME280;14279;50.010;8.260;2023-01-31T14:57:48;101061.88;;;5.51;86.29
26657;BME280;14279;50.010;8.260;2023-01-31T15:00:25;101064.03;;;5.82;85.89
26657;BME280;14279;50.010;8.260;2023-01-31T15:03:02;101062.59;;;5.61;84.63
26657;BME280;14279;50.010;8.260;2023-01-31T15:11:06;101056.34;;;5.76;84.52
26657;BME280;14279;50.010;8.260;2023-01-31T15:13:49;101067.47;;;5.81;84.62
26657;BME280;14279;50.010;8.260;2023-01-31T15:19:13;101050.19;;;5.84;84.09
26657;BME280;14279;50.010;8.260;2023-01-31T15:21:53;101054.31;;;5.96;84.37
26657;BME280;14279;50.010;8.260;2023-01-31T15:24:23;101055.00;;;6.09;83.33
26657;BME280;14279;50.010;8.260;2023-01-31T15:26:50;101049.19;;;5.93;83.25